createdAt,value
2023-05-09T00:00:55.893Z,5.10
2023-05-09T00:03:24.408Z,4.93
2023-05-09T00:05:53.730Z,4.47
2023-05-09T00:10:48.508Z,4.67
2023-05-09T00:13:16.965Z,5.20
2023-05-09T00:15:45.345Z,5.00
2023-05-09T00:18:15.116Z,4.50
2023-05-09T00:20:44.551Z,5.57
2023-05-09T00:23:12.908Z,4.47
2023-05-09T00:25:41.173Z,5.53
2023-05-09T00:28:09.727Z,5.07
2023-05-09T00:30:38.146Z,4.50
2023-05-09T00:33:06.788Z,6.77
2023-05-09T00:35:34.951Z,6.17
2023-05-09T00:38:02.820Z,5.87
2023-05-09T00:40:31.241Z,4.87
2023-05-09T00:43:02.423Z,5.57
2023-05-09T00:45:31.598Z,5.10
2023-05-09T00:48:00.192Z,4.63
2023-05-09T00:50:28.348Z,6.00
2023-05-09T00:52:56.532Z,6.53
2023-05-09T00:55:24.429Z,5.20
2023-05-09T00:57:52.451Z,5.23
2023-05-09T01:00:21.266Z,5.27
2023-05-09T01:02:51.529Z,5.93
2023-05-09T01:05:19.947Z,5.83
2023-05-09T01:07:52.951Z,6.97
2023-05-09T01:10:28.729Z,5.90
2023-05-09T01:12:58.308Z,8.07
2023-05-09T01:15:31.029Z,6.47
2023-05-09T01:18:00.885Z,6.00
2023-05-09T01:20:44.712Z,6.90
2023-05-09T01:23:20.656Z,8.57
2023-05-09T01:25:52.425Z,10.97
2023-05-09T01:28:22.262Z,14.33
2023-05-09T01:30:51.922Z,10.93
2023-05-09T01:33:20.978Z,7.10
2023-05-09T01:35:51.152Z,6.57
2023-05-09T01:38:21.108Z,5.73
2023-05-09T01:40:51.432Z,6.33
2023-05-09T01:43:20.226Z,4.87
2023-05-09T01:45:49.743Z,5.40
2023-05-09T01:48:18.796Z,6.53
2023-05-09T01:50:47.815Z,5.67
2023-05-09T01:53:17.837Z,5.33
2023-05-09T01:55:46.571Z,4.40
2023-05-09T01:58:15.458Z,6.10
2023-05-09T02:00:45.110Z,4.90
2023-05-09T02:03:13.521Z,5.90
2023-05-09T02:05:42.492Z,6.87
2023-05-09T02:08:11.454Z,5.20
2023-05-09T02:10:40.106Z,6.37
2023-05-09T02:13:08.629Z,5.43
2023-05-09T02:15:37.239Z,6.23
2023-05-09T02:18:05.732Z,6.10
2023-05-09T02:20:35.976Z,5.63
2023-05-09T02:23:04.421Z,5.77
2023-05-09T02:25:34.332Z,5.80
2023-05-09T02:28:02.893Z,4.93
2023-05-09T02:30:32.785Z,6.23
2023-05-09T02:33:03.105Z,6.90
2023-05-09T02:35:31.913Z,6.47
2023-05-09T02:38:01.145Z,5.67
2023-05-09T02:40:30.686Z,6.07
2023-05-09T02:42:58.668Z,8.23
2023-05-09T02:45:26.730Z,6.90
2023-05-09T02:47:54.752Z,6.57
2023-05-09T02:50:23.399Z,6.77
2023-05-09T02:52:52.157Z,8.53
2023-05-09T02:55:20.686Z,8.40
2023-05-09T02:57:51.974Z,8.63
2023-05-09T03:00:20.296Z,8.40
2023-05-09T03:02:49.247Z,9.03
2023-05-09T03:05:18.238Z,9.00
2023-05-09T03:07:46.470Z,8.87
2023-05-09T03:10:15.292Z,10.37
2023-05-09T03:12:44.229Z,10.37
2023-05-09T03:15:12.919Z,10.03
2023-05-09T03:17:41.196Z,11.03
2023-05-09T03:20:10.653Z,11.70
2023-05-09T03:22:38.557Z,11.47
2023-05-09T03:25:06.927Z,11.57
2023-05-09T03:27:35.138Z,11.43
2023-05-09T03:30:03.689Z,9.03
2023-05-09T03:32:32.117Z,10.13
2023-05-09T03:34:59.939Z,10.63
2023-05-09T03:37:28.283Z,9.97
2023-05-09T03:39:56.158Z,9.00
2023-05-09T03:42:24.645Z,14.27
2023-05-09T03:44:53.468Z,11.07
2023-05-09T03:47:21.427Z,12.77
2023-05-09T03:49:50.138Z,11.67
2023-05-09T03:52:18.419Z,13.00
2023-05-09T03:54:46.431Z,12.60
2023-05-09T03:57:14.914Z,15.73
2023-05-09T03:59:43.297Z,10.50
2023-05-09T04:02:12.063Z,11.43
2023-05-09T04:04:40.715Z,11.17
2023-05-09T04:07:08.567Z,10.00
2023-05-09T04:09:36.454Z,12.57
2023-05-09T04:12:05.023Z,8.77
2023-05-09T04:14:32.848Z,9.10
2023-05-09T04:17:01.303Z,7.97
2023-05-09T04:19:29.917Z,8.10
2023-05-09T04:21:59.169Z,11.53
2023-05-09T04:24:27.546Z,7.50
2023-05-09T04:26:56.070Z,6.90
2023-05-09T04:29:24.553Z,6.33
2023-05-09T04:31:53.277Z,6.17
2023-05-09T04:34:22.300Z,6.43
2023-05-09T04:36:52.675Z,7.43
2023-05-09T04:39:21.361Z,4.93
2023-05-09T04:41:50.956Z,4.40
2023-05-09T04:44:19.662Z,4.30
2023-05-09T04:46:47.469Z,4.80
2023-05-09T04:49:16.231Z,3.73
2023-05-09T04:51:44.793Z,3.50
2023-05-09T04:54:13.379Z,4.47
2023-05-09T04:56:41.326Z,3.43
2023-05-09T04:59:09.820Z,3.73
2023-05-09T05:01:38.211Z,2.60
2023-05-09T05:04:06.113Z,4.37
2023-05-09T05:06:34.512Z,4.03
2023-05-09T05:09:03.242Z,5.10
2023-05-09T05:11:31.822Z,4.03
2023-05-09T05:14:00.721Z,4.30
2023-05-09T05:16:28.970Z,4.27
2023-05-09T05:18:57.158Z,3.27
2023-05-09T05:21:25.648Z,3.53
2023-05-09T05:23:53.529Z,3.23
2023-05-09T05:26:22.906Z,3.13
2023-05-09T05:31:23.944Z,1.50
2023-05-09T05:33:52.455Z,1.97
2023-05-09T05:36:20.307Z,1.70
2023-05-09T05:38:48.496Z,1.90
2023-05-09T05:41:16.565Z,2.40
2023-05-09T05:43:45.860Z,5.17
2023-05-09T05:46:14.256Z,2.00
2023-05-09T05:48:42.970Z,2.10
2023-05-09T05:51:11.609Z,2.33
2023-05-09T05:53:39.892Z,4.50
2023-05-09T05:56:08.300Z,1.90
2023-05-09T05:58:36.443Z,2.57
2023-05-09T06:01:05.062Z,2.27
2023-05-09T06:03:33.880Z,3.67
2023-05-09T06:06:04.357Z,3.67
2023-05-09T06:08:34.687Z,2.53
2023-05-09T06:11:03.739Z,3.63
2023-05-09T06:13:32.465Z,3.50
2023-05-09T06:16:15.125Z,5.03
2023-05-09T06:18:31.514Z,2.93
2023-05-09T06:21:00.066Z,3.37
2023-05-09T06:23:28.271Z,1.40
2023-05-09T06:25:57.029Z,1.87
2023-05-09T06:28:26.017Z,1.50
2023-05-09T06:30:55.122Z,2.13
2023-05-09T06:33:24.002Z,3.30
2023-05-09T06:35:55.813Z,3.17
2023-05-09T06:38:26.006Z,1.83
2023-05-09T06:40:57.507Z,1.57
2023-05-09T06:43:28.372Z,2.73
2023-05-09T06:45:56.441Z,1.60
2023-05-09T06:48:25.034Z,3.97
2023-05-09T06:50:53.771Z,1.40
2023-05-09T06:53:22.511Z,1.20
2023-05-09T06:55:50.460Z,1.30
2023-05-09T06:58:19.049Z,1.63
2023-05-09T07:00:48.199Z,2.83
2023-05-09T07:03:16.235Z,1.97
2023-05-09T07:05:44.494Z,2.50
2023-05-09T07:08:13.181Z,1.67
2023-05-09T07:10:41.489Z,1.53
2023-05-09T07:13:10.092Z,2.37
2023-05-09T07:15:42.128Z,2.10
2023-05-09T07:18:07.771Z,2.40
2023-05-09T07:20:36.205Z,1.73
2023-05-09T07:23:04.935Z,1.73
2023-05-09T07:25:33.424Z,1.67
2023-05-09T07:28:02.057Z,2.67
2023-05-09T07:30:30.650Z,3.23
2023-05-09T07:32:59.082Z,3.27
2023-05-09T07:35:27.721Z,1.23
2023-05-09T07:37:56.246Z,1.90
2023-05-09T07:40:24.678Z,1.20
2023-05-09T07:42:54.904Z,1.93
2023-05-09T07:45:25.264Z,1.23
2023-05-09T07:47:52.941Z,2.10
2023-05-09T07:50:21.560Z,1.60
2023-05-09T07:52:50.756Z,1.97
2023-05-09T07:55:19.258Z,1.93
2023-05-09T07:57:48.333Z,1.30
2023-05-09T08:00:17.109Z,1.50
2023-05-09T08:02:45.823Z,2.00
2023-05-09T08:05:14.690Z,1.67
2023-05-09T08:07:43.386Z,1.50
2023-05-09T08:10:12.103Z,1.20
2023-05-09T08:12:40.539Z,5.70
2023-05-09T08:15:09.642Z,2.80
2023-05-09T08:17:38.265Z,2.67
2023-05-09T08:20:07.759Z,2.23
2023-05-09T08:22:36.019Z,2.30
2023-05-09T08:25:03.934Z,1.60
2023-05-09T08:27:31.753Z,1.27
2023-05-09T08:29:59.635Z,1.97
2023-05-09T08:32:28.131Z,2.60
2023-05-09T08:34:56.638Z,2.30
2023-05-09T08:37:25.033Z,1.43
2023-05-09T08:39:53.453Z,1.87
2023-05-09T08:42:26.073Z,2.30
2023-05-09T08:44:53.718Z,1.90
2023-05-09T08:47:22.829Z,2.00
2023-05-09T08:49:52.396Z,1.67
2023-05-09T08:52:21.809Z,1.47
2023-05-09T08:57:17.532Z,1.00
2023-05-09T08:59:46.446Z,2.23
2023-05-09T09:02:15.941Z,1.40
2023-05-09T09:04:45.665Z,1.50
2023-05-09T09:07:14.586Z,0.80
2023-05-09T09:09:47.167Z,1.27
2023-05-09T09:12:17.473Z,1.10
2023-05-09T09:14:50.290Z,0.83
2023-05-09T09:17:20.314Z,1.57
2023-05-09T09:19:50.112Z,0.93
2023-05-09T09:22:21.477Z,1.70
2023-05-09T09:24:50.083Z,2.83
2023-05-09T09:27:18.752Z,1.27
2023-05-09T09:29:46.580Z,2.90
2023-05-09T09:32:15.012Z,1.10
2023-05-09T09:34:43.034Z,1.70
2023-05-09T09:37:12.979Z,1.50
2023-05-09T09:39:43.541Z,1.67
2023-05-09T09:42:13.054Z,1.57
2023-05-09T09:44:41.627Z,1.77
2023-05-09T09:47:11.819Z,1.30
2023-05-09T09:49:42.736Z,2.80
2023-05-09T09:52:39.493Z,3.63
2023-05-09T09:55:10.506Z,2.37
2023-05-09T09:57:41.704Z,1.70
2023-05-09T10:00:10.216Z,2.83
2023-05-09T10:02:40.231Z,2.50
2023-05-09T10:05:09.001Z,1.57
2023-05-09T10:07:37.877Z,1.23
2023-05-09T10:10:06.834Z,1.80
2023-05-09T10:12:34.959Z,1.80
2023-05-09T10:15:07.188Z,2.50
2023-05-09T10:17:35.766Z,1.70
2023-05-09T10:20:06.053Z,1.33
2023-05-09T10:22:35.853Z,1.57
2023-05-09T10:25:06.583Z,1.50
2023-05-09T10:27:36.697Z,2.03
2023-05-09T10:30:07.676Z,1.80
2023-05-09T10:32:40.596Z,1.50
2023-05-09T10:35:09.960Z,1.70
2023-05-09T10:40:06.564Z,3.10
2023-05-09T10:42:34.909Z,1.60
2023-05-09T10:45:03.487Z,2.57
2023-05-09T10:47:33.830Z,1.57
2023-05-09T10:50:02.718Z,1.63
2023-05-09T10:52:34.338Z,3.10
2023-05-09T10:55:06.236Z,2.30
2023-05-09T10:57:34.091Z,2.10
2023-05-09T11:00:02.114Z,3.37
2023-05-09T11:02:31.739Z,3.97
2023-05-09T11:05:16.499Z,3.20
2023-05-09T11:07:45.346Z,4.07
2023-05-09T11:10:18.403Z,2.37
2023-05-09T11:12:57.931Z,2.63
2023-05-09T11:15:28.218Z,3.60
2023-05-09T11:18:10.569Z,2.60
2023-05-09T11:20:45.635Z,2.43
2023-05-09T11:23:17.462Z,3.93
2023-05-09T11:25:50.235Z,2.90
2023-05-09T11:28:31.082Z,6.93
2023-05-09T11:31:12.975Z,4.30
2023-05-09T11:33:42.442Z,4.37
2023-05-09T11:36:18.838Z,3.43
2023-05-09T11:38:48.289Z,3.40
2023-05-09T11:41:17.239Z,3.43
2023-05-09T11:43:45.627Z,3.13
2023-05-09T11:46:13.922Z,3.43
2023-05-09T11:48:43.108Z,4.53
2023-05-09T11:51:37.814Z,3.17
2023-05-09T11:54:07.817Z,3.57
2023-05-09T11:56:36.499Z,2.10
2023-05-09T11:59:05.074Z,3.87
2023-05-09T12:01:33.885Z,4.03
2023-05-09T12:04:02.864Z,4.63
2023-05-09T12:06:31.491Z,3.43
2023-05-09T12:08:59.619Z,3.50
2023-05-09T12:11:29.705Z,3.43
2023-05-09T12:13:58.030Z,4.43
2023-05-09T12:16:26.597Z,5.60
2023-05-09T12:18:55.433Z,4.13
2023-05-09T12:21:24.464Z,1.67
2023-05-09T12:23:54.400Z,3.23
2023-05-09T12:26:23.838Z,3.53
2023-05-09T12:28:53.059Z,3.50
2023-05-09T12:31:21.767Z,3.43
2023-05-09T12:33:50.441Z,4.43
2023-05-09T12:36:18.705Z,2.90
2023-05-09T12:38:56.532Z,3.30
2023-05-09T12:43:54.807Z,1.93
2023-05-09T12:46:23.734Z,2.93
2023-05-09T12:48:51.726Z,3.00
2023-05-09T12:51:21.368Z,2.07
2023-05-09T12:53:50.014Z,3.37
2023-05-09T12:56:19.182Z,2.60
2023-05-09T12:58:52.459Z,1.40
2023-05-09T13:01:21.654Z,1.80
2023-05-09T13:03:53.866Z,3.20
2023-05-09T13:06:22.366Z,5.70
2023-05-09T13:08:53.289Z,2.90
2023-05-09T13:11:21.872Z,2.43
2023-05-09T13:13:50.358Z,2.87
2023-05-09T13:16:19.192Z,4.73
2023-05-09T13:18:47.619Z,3.47
2023-05-09T13:21:16.415Z,4.13
2023-05-09T13:23:45.436Z,4.33
2023-05-09T13:26:13.836Z,4.43
2023-05-09T13:28:42.003Z,2.47
2023-05-09T13:31:10.835Z,5.10
2023-05-09T13:33:39.832Z,4.23
2023-05-09T13:36:08.535Z,3.13
2023-05-09T13:38:40.712Z,4.30
2023-05-09T13:41:09.280Z,2.97
2023-05-09T13:43:38.112Z,4.87
2023-05-09T13:46:06.902Z,5.17
2023-05-09T13:48:35.326Z,4.27
2023-05-09T13:51:04.325Z,3.83
2023-05-09T13:53:32.815Z,2.37
2023-05-09T13:56:01.308Z,2.03
2023-05-09T13:58:29.347Z,2.17
2023-05-09T14:00:57.764Z,2.87
2023-05-09T14:03:27.130Z,3.43
2023-05-09T14:05:55.743Z,4.50
2023-05-09T14:08:24.111Z,2.90
2023-05-09T14:10:52.408Z,3.93
2023-05-09T14:13:20.837Z,3.53
2023-05-09T14:15:49.383Z,3.27
2023-05-09T14:18:20.775Z,3.97
2023-05-09T14:20:48.236Z,2.37
2023-05-09T14:23:16.766Z,3.70
2023-05-09T14:25:45.330Z,2.00
2023-05-09T14:28:13.105Z,1.73
2023-05-09T14:30:42.194Z,1.70
2023-05-09T14:33:10.569Z,2.13
2023-05-09T14:35:41.002Z,1.70
2023-05-09T14:38:08.860Z,2.20
2023-05-09T14:40:37.644Z,1.50
2023-05-09T14:43:06.071Z,1.50
2023-05-09T14:45:34.728Z,3.27
2023-05-09T14:48:05.376Z,3.30
2023-05-09T14:50:33.889Z,1.50
2023-05-09T14:53:02.146Z,1.90
2023-05-09T14:55:31.573Z,2.47
2023-05-09T15:00:27.765Z,2.45
2023-05-09T15:02:56.593Z,2.23
2023-05-09T15:05:25.768Z,2.57
2023-05-09T15:07:53.771Z,2.03
2023-05-09T15:10:22.305Z,2.57
2023-05-09T15:12:50.956Z,1.83
2023-05-09T15:15:20.673Z,1.90
2023-05-09T15:17:49.342Z,2.00
2023-05-09T15:20:20.814Z,1.77
2023-05-09T15:22:49.553Z,3.00
2023-05-09T15:25:18.163Z,3.53
2023-05-09T15:27:46.807Z,2.57
2023-05-09T15:30:15.291Z,2.17
2023-05-09T15:32:44.068Z,3.83
2023-05-09T15:35:12.653Z,3.13
2023-05-09T15:37:41.329Z,2.60
2023-05-09T15:40:10.004Z,2.60
2023-05-09T15:42:38.393Z,2.27
2023-05-09T15:45:07.285Z,4.70
2023-05-09T15:47:35.802Z,3.27
2023-05-09T15:50:04.709Z,4.83
2023-05-09T15:52:33.243Z,3.03
2023-05-09T15:55:02.481Z,3.70
2023-05-09T15:57:31.053Z,4.73
2023-05-09T15:59:59.407Z,2.10
2023-05-09T16:02:28.584Z,1.70
2023-05-09T16:04:57.512Z,2.47
2023-05-09T16:07:25.629Z,2.97
2023-05-09T16:09:54.046Z,1.50
2023-05-09T16:12:22.530Z,2.40
2023-05-09T16:14:50.909Z,2.23
2023-05-09T16:17:19.223Z,2.30
2023-05-09T16:19:47.772Z,1.97
2023-05-09T16:22:17.075Z,1.50
2023-05-09T16:24:46.044Z,3.57
2023-05-09T16:27:15.058Z,2.10
2023-05-09T16:29:43.462Z,3.77
2023-05-09T16:32:11.578Z,2.10
2023-05-09T16:34:41.014Z,2.20
2023-05-09T16:37:09.494Z,2.50
2023-05-09T16:39:38.027Z,2.07
2023-05-09T16:42:06.572Z,4.40
2023-05-09T16:44:34.945Z,3.47
2023-05-09T16:47:03.442Z,2.60
2023-05-09T16:49:31.803Z,3.10
2023-05-09T16:52:00.481Z,2.40
2023-05-09T16:54:28.974Z,3.77
2023-05-09T16:56:57.450Z,2.83
2023-05-09T16:59:26.336Z,1.80
2023-05-09T17:01:54.712Z,3.67
2023-05-09T17:04:22.640Z,2.57
2023-05-09T17:06:52.206Z,2.33
2023-05-09T17:11:48.340Z,2.62
2023-05-09T17:16:44.123Z,2.15
2023-05-09T17:19:12.739Z,2.33
2023-05-09T17:21:41.901Z,2.20
2023-05-09T17:24:10.701Z,1.80
2023-05-09T17:26:39.152Z,2.33
2023-05-09T17:29:07.206Z,2.23
2023-05-09T17:31:35.857Z,4.10
2023-05-09T17:34:05.999Z,2.90
2023-05-09T17:36:34.591Z,2.73
2023-05-09T17:39:03.076Z,2.57
2023-05-09T17:41:31.652Z,2.13
2023-05-09T17:44:00.244Z,1.90
2023-05-09T17:46:28.658Z,4.00
2023-05-09T17:48:58.159Z,5.67
2023-05-09T17:51:26.597Z,4.10
2023-05-09T17:53:55.191Z,3.40
2023-05-09T17:56:24.458Z,2.73
2023-05-09T17:58:53.590Z,3.07
2023-05-09T18:01:21.711Z,2.97
2023-05-09T18:03:50.699Z,2.57
2023-05-09T18:06:19.494Z,1.70
2023-05-09T18:08:48.068Z,1.83
2023-05-09T18:11:16.907Z,2.10
2023-05-09T18:13:45.611Z,2.00
2023-05-09T18:16:14.250Z,2.20
2023-05-09T18:18:43.012Z,2.40
2023-05-09T18:21:11.831Z,3.27
2023-05-09T18:23:40.346Z,1.60
2023-05-09T18:26:08.891Z,3.17
2023-05-09T18:28:38.988Z,1.53
2023-05-09T18:31:09.754Z,1.10
2023-05-09T18:33:39.608Z,5.00
2023-05-09T18:36:11.745Z,1.27
2023-05-09T18:38:40.317Z,1.37
2023-05-09T18:41:09.375Z,1.33
2023-05-09T18:43:38.792Z,1.57
2023-05-09T18:46:08.182Z,2.63
2023-05-09T18:48:36.839Z,1.87
2023-05-09T18:51:05.522Z,2.67
2023-05-09T18:53:33.625Z,2.13
2023-05-09T18:56:01.983Z,2.53
2023-05-09T18:58:30.900Z,2.97
2023-05-09T19:00:58.855Z,2.60
2023-05-09T19:03:27.820Z,2.73
2023-05-09T19:05:56.498Z,5.37
2023-05-09T19:08:26.516Z,2.77
2023-05-09T19:10:54.519Z,4.43
2023-05-09T19:13:23.324Z,2.90
2023-05-09T19:15:51.978Z,2.23
2023-05-09T19:18:20.149Z,2.50
2023-05-09T19:20:47.966Z,2.83
2023-05-09T19:23:16.012Z,5.27
2023-05-09T19:25:45.069Z,6.20
2023-05-09T19:28:14.581Z,4.43
2023-05-09T19:33:10.198Z,6.22
2023-05-09T19:35:39.054Z,6.20
2023-05-09T19:38:07.994Z,4.70
2023-05-09T19:40:35.886Z,2.83
2023-05-09T19:43:04.355Z,2.67
2023-05-09T19:45:32.895Z,1.93
2023-05-09T19:48:01.672Z,1.70
2023-05-09T19:50:31.480Z,1.30
2023-05-09T19:52:59.906Z,3.53
2023-05-09T19:55:27.846Z,2.43
2023-05-09T19:57:56.417Z,4.53
2023-05-09T20:00:25.565Z,4.40
2023-05-09T20:02:53.512Z,3.47
2023-05-09T20:05:22.016Z,3.93
2023-05-09T20:07:51.517Z,4.70
2023-05-09T20:12:47.377Z,3.80
2023-05-09T20:15:16.247Z,2.67
2023-05-09T20:17:45.271Z,3.37
2023-05-09T20:20:14.216Z,2.37
2023-05-09T20:22:43.021Z,3.20
2023-05-09T20:25:11.729Z,3.13
2023-05-09T20:27:40.496Z,5.33
2023-05-09T20:30:09.381Z,3.67
2023-05-09T20:32:37.921Z,3.60
2023-05-09T20:35:06.964Z,4.30
2023-05-09T20:37:34.820Z,3.50
2023-05-09T20:40:03.619Z,4.50
2023-05-09T20:42:31.991Z,4.60
2023-05-09T20:45:00.342Z,6.27
2023-05-09T20:47:28.780Z,5.67
2023-05-09T20:49:58.404Z,5.33
2023-05-09T20:52:27.088Z,5.50
2023-05-09T20:54:54.930Z,6.60
2023-05-09T20:57:23.294Z,5.13
2023-05-09T20:59:51.785Z,5.10
2023-05-09T21:02:20.444Z,6.30
2023-05-09T21:04:49.061Z,6.47
2023-05-09T21:07:19.227Z,5.47
2023-05-09T21:09:48.067Z,6.53
2023-05-09T21:12:16.578Z,5.83
2023-05-09T21:14:45.350Z,6.63
2023-05-09T21:17:13.932Z,7.63
2023-05-09T21:19:42.442Z,7.10
2023-05-09T21:22:10.972Z,5.17
2023-05-09T21:24:39.305Z,5.87
2023-05-09T21:27:07.254Z,5.17
2023-05-09T21:29:35.186Z,5.23
2023-05-09T21:32:03.593Z,5.07
2023-05-09T21:34:32.263Z,7.07
2023-05-09T21:37:00.519Z,6.23
2023-05-09T21:39:28.905Z,5.63
2023-05-09T21:41:57.117Z,5.00
2023-05-09T21:44:25.871Z,5.93
2023-05-09T21:46:54.243Z,6.03
2023-05-09T21:49:22.697Z,6.87
2023-05-09T21:51:51.226Z,6.10
2023-05-09T21:54:19.247Z,6.37
2023-05-09T21:56:48.658Z,5.00
2023-05-09T21:59:18.253Z,5.87
2023-05-09T22:01:47.035Z,6.03
2023-05-09T22:04:16.012Z,6.67
2023-05-09T22:06:43.887Z,5.23
2023-05-09T22:09:12.328Z,5.73
2023-05-09T22:11:40.710Z,6.40
2023-05-09T22:14:10.308Z,6.43
2023-05-09T22:16:39.037Z,6.07
2023-05-09T22:19:07.585Z,5.87
2023-05-09T22:21:36.069Z,5.57
2023-05-09T22:24:04.473Z,4.87
2023-05-09T22:26:33.155Z,6.33
2023-05-09T22:29:01.724Z,4.87
2023-05-09T22:31:29.636Z,5.63
2023-05-09T22:33:57.952Z,7.00
2023-05-09T22:36:26.453Z,6.43
2023-05-09T22:38:55.039Z,5.47
2023-05-09T22:41:23.519Z,6.13
2023-05-09T22:43:51.892Z,6.57
2023-05-09T22:46:20.438Z,6.20
2023-05-09T22:48:49.117Z,6.77
2023-05-09T22:51:17.793Z,6.07
2023-05-09T22:53:45.627Z,7.03
2023-05-09T22:56:14.455Z,6.70
2023-05-09T22:58:42.984Z,5.53
2023-05-09T23:01:10.986Z,6.57
2023-05-09T23:03:39.053Z,5.37
2023-05-09T23:06:07.755Z,5.03
2023-05-09T23:08:36.100Z,6.60
2023-05-09T23:11:05.490Z,5.17
2023-05-09T23:13:33.327Z,6.77
2023-05-09T23:16:01.223Z,5.33
2023-05-09T23:18:31.454Z,4.43
2023-05-09T23:20:59.945Z,5.23
2023-05-09T23:23:28.356Z,4.77
2023-05-09T23:25:56.280Z,4.77
2023-05-09T23:28:25.796Z,6.80
2023-05-09T23:30:56.774Z,4.63
2023-05-09T23:33:25.355Z,5.67
2023-05-09T23:35:53.684Z,6.73
2023-05-09T23:38:22.535Z,9.13
2023-05-09T23:40:50.956Z,7.13
2023-05-09T23:43:19.437Z,5.40
2023-05-09T23:45:48.019Z,7.87
2023-05-09T23:48:16.502Z,5.77
2023-05-09T23:50:44.985Z,6.07
2023-05-09T23:53:13.298Z,6.70
2023-05-09T23:55:41.254Z,7.40
2023-05-09T23:58:09.692Z,7.73
